Data for 07/14/2013

Time Sea-Level Adjusted Pressure Absolute Pressure Temperature Relative Humidity Dew Point   
(mb) (inHg) (mb) (inHg) (C) (F) (%) (C) (F)
00:05 1023 30.21 852 25.16 16.3 61.3 67 10.3 50.5
00:10 1023 30.21 852 25.16 16.3 61.4 66 10 49.9
00:15 1023 30.21 852 25.16 16.3 61.3 66 10 50
00:20 1023 30.21 852 25.16 16.2 61.2 66 9.9 49.8
00:25 1023 30.21 852 25.16 16.2 61.1 65 9.8 49.6
00:30 1023 30.21 852 25.16 16.1 61.1 66 9.8 49.6
00:35 1023 30.21 852 25.16 16.1 61 66 9.9 49.9
00:40 1023 30.21 852 25.16 16.1 60.9 66 9.8 49.6
00:45 1023 30.21 852 25.16 16.1 60.9 65 9.6 49.4
00:50 1023 30.21 852 25.16 16.1 60.9 65 9.7 49.4
00:55 1023 30.21 852 25.16 16.1 60.9 66 9.8 49.7
01:00 1023 30.21 852 25.16 16 60.8 67 9.9 49.8
01:05 1023 30.21 852 25.16 16 60.7 67 9.9 49.7
01:10 1023 30.21 852 25.16 15.8 60.5 67 9.7 49.4
01:15 1023 30.21 852 25.16 15.8 60.4 67 9.7 49.5
01:20 1023 30.21 852 25.16 15.7 60.3 68 9.8 49.6
01:25 1023 30.21 852 25.16 15.6 60.1 69 10 50
01:30 1023 30.21 852 25.16 15.6 60 69 10 50
01:35 1023 30.21 852 25.16 15.6 60 69 10 49.9
01:40 1023 30.21 852 25.16 15.5 59.8 69 9.9 49.7
01:45 1023 30.21 852 25.16 15.4 59.7 69 9.8 49.6
01:50 1023 30.21 852 25.16 15.4 59.7 68 9.6 49.2
01:55 1023 30.21 852 25.16 15.3 59.5 69 9.7 49.5
02:00 1023 30.21 852 25.16 15.1 59.2 69 9.6 49.4
02:05 1023 30.21 852 25.16 15.1 59.2 69 9.5 49.1
02:10 1023 30.21 852 25.16 15.1 59.2 69 9.6 49.2
02:15 1023 30.21 852 25.16 15 59.1 70 9.6 49.3
02:20 1023 30.21 852 25.16 15 59 69 9.4 48.8
02:25 1023 30.21 852 25.16 14.9 58.9 68 9.2 48.5
02:30 1023 30.21 852 25.16 14.9 58.9 67 9 48.1
02:35 1023 30.21 852 25.16 14.9 58.9 66 8.8 47.8
02:40 1023 30.21 852 25.16 14.9 58.7 66 8.6 47.5
02:45 1023 30.21 852 25.16 14.8 58.7 65 8.5 47.3
02:50 1023 30.21 852 25.16 14.8 58.6 66 8.5 47.3
02:55 1023 30.21 852 25.16 14.7 58.5 66 8.4 47.2
03:00 1023 30.21 852 25.16 14.7 58.5 66 8.4 47.1
03:05 1023 30.21 852 25.16 14.6 58.3 66 8.4 47
03:10 1023 30.21 852 25.16 14.5 58.2 66 8.3 46.9
03:15 1023 30.21 852 25.16 14.5 58.1 66 8.2 46.7
03:20 1023 30.21 852 25.16 14.4 58 66 8.2 46.8
03:25 1023 30.21 852 25.16 14.3 57.8 66 8.1 46.6
03:30 1023 30.21 852 25.16 14.3 57.7 66 8.1 46.6
03:35 1023 30.21 852 25.16 14.2 57.6 66 8.1 46.6
03:40 1023 30.21 852 25.16 14.2 57.6 66 8 46.3
03:45 1023 30.21 852 25.16 14.2 57.5 65 7.9 46.1
03:50 1023 30.21 852 25.16 14.2 57.5 65 7.7 45.9
03:55 1023 30.21 852 25.16 14.2 57.5 65 7.7 45.9
04:00 1023 30.21 852 25.16 14.1 57.4 65 7.7 45.8
04:05 1023 30.21 852 25.16 14.1 57.3 65 7.7 45.9
04:10 1023 30.21 852 25.16 14.1 57.4 66 7.8 46
04:15 1023 30.21 853 25.19 14 57.2 66 7.8 46
04:20 1023 30.21 852 25.16 13.9 57.1 66 7.7 45.9
04:25 1023 30.21 852 25.16 14 57.2 66 7.8 46.1
04:30 1023 30.21 853 25.19 14 57.2 66 7.9 46.2
04:35 1023 30.21 853 25.19 13.9 57.1 67 7.9 46.3
04:40 1024 30.24 853 25.19 13.9 57 67 8 46.5
04:45 1023 30.21 853 25.19 13.9 57 67 8 46.4
04:50 1024 30.24 853 25.19 13.9 56.9 68 8.1 46.6
04:55 1023 30.21 853 25.19 13.8 56.9 68 8 46.5
05:00 1023 30.21 853 25.19 13.8 56.8 68 8 46.5
05:05 1024 30.24 853 25.19 13.8 56.8 68 8.1 46.5
05:10 1024 30.24 853 25.19 13.7 56.7 68 8 46.3
05:15 1024 30.24 853 25.19 13.8 56.8 68 7.9 46.3
05:20 1024 30.24 853 25.19 13.8 56.9 68 8 46.4
05:25 1024 30.24 853 25.19 13.8 56.8 68 8 46.4
05:30 1024 30.24 853 25.19 13.8 56.8 68 8 46.5
05:35 1024 30.24 853 25.19 13.7 56.6 68 8 46.4
05:40 1024 30.24 853 25.19 13.7 56.7 68 8 46.4
05:45 1024 30.24 853 25.19 13.8 56.9 68 8 46.4
05:50 1024 30.24 853 25.19 13.9 57 68 8 46.5
05:55 1024 30.24 853 25.19 14 57.1 67 8 46.4
06:00 1024 30.24 853 25.19 14 57.1 68 8.2 46.7
06:05 1024 30.24 853 25.19 14 57.3 67 8.1 46.5
06:10 1024 30.24 853 25.19 14.1 57.3 67 8.2 46.7
06:15 1024 30.24 853 25.19 14.1 57.3 67 8.1 46.5
06:20 1024 30.24 853 25.19 14.2 57.5 67 8.1 46.5
06:25 1024 30.24 853 25.19 14.2 57.6 66 8 46.4
06:30 1024 30.24 853 25.19 14.3 57.7 67 8.2 46.7
06:35 1024 30.24 853 25.19 14.3 57.8 66 8.1 46.7
06:40 1024 30.24 853 25.19 14.4 58 66 8.2 46.8
06:45 1024 30.24 853 25.19 14.5 58 66 8.2 46.7
06:50 1024 30.24 853 25.19 14.6 58.3 66 8.3 47
06:55 1024 30.24 853 25.19 14.7 58.5 65 8.3 46.9
07:00 1024 30.24 853 25.19 14.8 58.6 66 8.5 47.3
07:05 1024 30.24 853 25.19 14.9 58.8 65 8.3 47
07:10 1024 30.24 853 25.19 15 59 65 8.5 47.2
07:15 1024 30.24 853 25.19 15.2 59.3 64 8.5 47.3
07:20 1024 30.24 854 25.22 15.3 59.5 64 8.5 47.4
07:25 1024 30.24 854 25.22 15.4 59.8 63 8.5 47.3
07:30 1024 30.24 854 25.22 15.6 60 62 8.5 47.2
07:35 1024 30.24 854 25.22 15.4 59.8 63 8.5 47.4
07:40 1024 30.24 853 25.19 15.6 60.1 62 8.5 47.2
07:45 1024 30.24 853 25.19 15.7 60.3 62 8.6 47.5
07:50 1024 30.24 853 25.19 15.9 60.6 62 8.6 47.5
07:55 1024 30.24 853 25.19 15.9 60.6 62 8.8 47.8
08:00 1024 30.24 853 25.19 15.9 60.7 62 8.7 47.6
08:05 1024 30.24 853 25.19 16 60.8 62 8.7 47.6
08:10 1024 30.24 853 25.19 16.2 61.2 61 8.6 47.6
08:15 1024 30.24 853 25.19 16.4 61.5 60 8.7 47.7
08:20 1024 30.24 853 25.19 16.5 61.7 60 8.8 47.8
08:25 1024 30.24 853 25.19 16.9 62.3 59 8.9 47.9
08:30 1024 30.24 854 25.22 17.4 63.4 57 9 48.1
08:35 1024 30.24 854 25.22 17.5 63.4 58 9.1 48.4
08:40 1024 30.24 854 25.22 17.5 63.4 58 9.2 48.6
08:45 1024 30.24 854 25.22 17.1 62.8 60 9.3 48.8
08:50 1025 30.27 854 25.22 16.9 62.4 60 9.2 48.6
08:55 1024 30.24 853 25.19 17 62.6 60 9.2 48.6
09:00 1024 30.24 853 25.19 16.8 62.2 60 9.1 48.4
09:05 1024 30.24 853 25.19 16.7 62 61 9.2 48.6
09:10 1024 30.24 853 25.19 17 62.6 59 9.1 48.4
09:15 1024 30.24 853 25.19 17.6 63.7 58 9.3 48.8
09:20 1024 30.24 853 25.19 17.6 63.7 58 9.4 48.9
09:25 1024 30.24 853 25.19 18.1 64.5 57 9.4 49
09:30 1024 30.24 853 25.19 18.3 64.9 57 9.8 49.6
09:35 1024 30.24 853 25.19 17.9 64.2 57 9.4 48.9
09:40 1024 30.24 853 25.19 17.9 64.2 58 9.6 49.3
09:45 1024 30.24 853 25.19 17.6 63.6 59 9.6 49.3
09:50 1024 30.24 853 25.19 17.3 63.1 60 9.5 49.2
09:55 1024 30.24 853 25.19 17.7 63.8 59 9.6 49.4
10:00 1024 30.24 853 25.19 18.1 64.6 57 9.5 49.2
10:05 1024 30.24 853 25.19 18.6 65.5 56 9.8 49.6
10:10 1024 30.24 853 25.19 18.4 65.2 56 9.7 49.4
10:15 1024 30.24 853 25.19 19.1 66.4 54 9.8 49.6
10:20 1024 30.24 853 25.19 19.4 66.9 53 9.8 49.7
10:25 1024 30.24 853 25.19 19.8 67.6 52 9.8 49.7
10:30 1023 30.21 853 25.19 20.1 68.3 51 9.9 49.8
10:35 1023 30.21 853 25.19 19.5 67.1 52 9.5 49
10:40 1023 30.21 853 25.19 19.7 67.4 52 9.6 49.3
10:45 1024 30.24 853 25.19 19.8 67.7 51 9.5 49.1
10:50 1024 30.24 853 25.19 20.4 68.7 50 9.6 49.3
10:55 1024 30.24 853 25.19 21.1 70 48 10 49.9
11:00 1024 30.24 853 25.19 21.1 69.9 50 10.4 50.7
11:05 1023 30.21 853 25.19 21.3 70.3 48 9.9 49.9
11:10 1023 30.21 853 25.19 21.3 70.3 49 10.3 50.5
11:15 1023 30.21 853 25.19 21.2 70.1 48 9.9 49.8
11:20 1023 30.21 853 25.19 21.1 70 48 9.8 49.6
11:25 1023 30.21 853 25.19 21.4 70.5 47 9.9 49.8
11:30 1024 30.24 853 25.19 21.1 70.1 48 10 49.9
11:35 1024 30.24 853 25.19 21.7 71.1 44 9.2 48.6
11:40 1024 30.24 853 25.19 22.8 73 42 9.3 48.8
11:45 1023 30.21 853 25.19 23.1 73.6 42 9.8 49.7
11:50 1023 30.21 853 25.19 23.4 74.1 40 9.2 48.6
11:55 1023 30.21 853 25.19 23 73.4 42 9.5 49.2
12:00 1023 30.21 853 25.19 23.2 73.8 40 9.1 48.3
12:05 1023 30.21 852 25.16 24.1 75.4 36 8.2 46.8
12:10 1023 30.21 852 25.16 24.3 75.7 37 8.9 48
12:15 1023 30.21 852 25.16 23.6 74.5 38 8.5 47.3
12:20 1023 30.21 852 25.16 23.9 75.1 35 7.9 46.2
12:25 1023 30.21 852 25.16 23.6 74.4 35 7.3 45.1
12:30 1023 30.21 852 25.16 24.3 75.8 34 7.5 45.5
12:35 1023 30.21 852 25.16 24.8 76.7 34 7.9 46.3
12:40 1023 30.21 852 25.16 24.6 76.2 31 6.5 43.7
12:45 1023 30.21 852 25.16 25.5 77.8 30 6.7 44.1
12:50 1023 30.21 852 25.16 25.8 78.4 31 7.9 46.1
12:55 1023 30.21 852 25.16 25.4 77.7 30 6.8 44.3
13:00 1023 30.21 852 25.16 24.5 76.1 31 6.4 43.6
13:05 1023 30.21 852 25.16 24.5 76.1 27 4.6 40.3
13:10 1023 30.21 852 25.16 24.7 76.5 24 3.2 37.7
13:15 1023 30.21 852 25.16 25.1 77.2 24 3.6 38.5
13:20 1023 30.21 852 25.16 25.8 78.5 24 4 39.2
13:25 1023 30.21 852 25.16 26.1 78.9 23 3.6 38.5
13:30 1022 30.18 852 25.16 25.9 78.6 25 4.8 40.7
13:35 1022 30.18 852 25.16 25.7 78.2 22 2.9 37.2
13:40 1022 30.18 851 25.13 26.2 79.1 20 1.9 35.4
13:45 1022 30.18 851 25.13 26.7 80 19 1.7 35
13:50 1022 30.18 851 25.13 26.3 79.4 20 1.9 35.5
13:55 1022 30.18 851 25.13 27.2 80.9 19 1.6 34.9
14:00 1022 30.18 851 25.13 27.3 81.2 19 1.7 35
14:05 1022 30.18 851 25.13 27.1 80.8 18 1.1 34
14:10 1022 30.18 851 25.13 26.9 80.4 18 1.1 34
14:15 1022 30.18 851 25.13 26.7 80 18 0.9 33.7
14:20 1022 30.18 851 25.13 26.5 79.6 20 1.8 35.3
14:25 1022 30.18 851 25.13 26.9 80.5 19 1.8 35.3
14:30 1022 30.18 851 25.13 27.4 81.4 19 1.8 35.3
14:35 1022 30.18 851 25.13 27.7 81.9 18 1.4 34.6
14:40 1022 30.18 851 25.13 28 82.5 18 1.7 35.1
14:45 1021 30.15 851 25.13 28.6 83.5 19 2.8 37.1
14:50 1021 30.15 851 25.13 27.8 82 19 2.3 36.2
14:55 1021 30.15 851 25.13 27.6 81.6 20 2.7 36.9
15:00 1021 30.15 850 25.1 27.8 82 20 3.2 37.8
15:05 1021 30.15 850 25.1 27.9 82.2 18 1.8 35.3
15:10 1021 30.15 850 25.1 28.6 83.4 18 2.6 36.7
15:15 1021 30.15 850 25.1 29 84.1 17 1.6 34.8
15:20 1021 30.15 850 25.1 29 84.3 18 2.3 36.1
15:25 1021 30.15 850 25.1 29 84.2 18 2.3 36.2
15:30 1021 30.15 850 25.1 28.7 83.7 18 2.6 36.7
15:35 1021 30.15 850 25.1 27.7 81.9 19 2.6 36.7
15:40 1021 30.15 850 25.1 28 82.3 18 2 35.6
15:45 1021 30.15 850 25.1 29.1 84.4 18 2.5 36.5
15:50 1021 30.15 850 25.1 29.1 84.3 18 2.7 36.9
15:55 1021 30.15 850 25.1 29.5 85.2 18 2.7 36.9
16:00 1021 30.15 850 25.1 29.7 85.5 18 2.8 37.1
16:05 1021 30.15 850 25.1 29.7 85.4 17 2.7 36.9
16:10 1021 30.15 850 25.1 29.5 85.2 17 2.6 36.7
16:15 1021 30.15 850 25.1 29.5 85.2 17 2.6 36.6
16:20 1021 30.15 850 25.1 29.1 84.4 18 2.4 36.3
16:25 1021 30.15 850 25.1 29.4 84.9 17 2.4 36.2
16:30 1020 30.12 850 25.1 28.3 82.9 18 2.1 35.8
16:35 1020 30.12 850 25.1 28 82.4 19 2.6 36.7
16:40 1020 30.12 850 25.1 28.7 83.7 17 1.7 35.1
16:45 1020 30.12 850 25.1 29.2 84.6 17 1.7 35.1
16:50 1020 30.12 849 25.07 29.8 85.6 16 1.8 35.2
16:55 1020 30.12 849 25.07 30.1 86.2 17 2.4 36.4
17:00 1020 30.12 849 25.07 30 86 16 2 35.6
17:05 1020 30.12 849 25.07 29.3 84.8 18 2.9 37.3
17:10 1020 30.12 849 25.07 28.9 84 17 1.8 35.3
17:15 1020 30.12 849 25.07 28.7 83.7 18 2.1 35.8
17:20 1020 30.12 849 25.07 28.4 83.2 18 2 35.7
17:25 1020 30.12 849 25.07 28.6 83.4 18 2.6 36.6
17:30 1020 30.12 849 25.07 28.3 82.9 24 6.1 42.9
17:35 1020 30.12 849 25.07 27.2 80.9 27 6.6 43.9
17:40 1020 30.12 849 25.07 26.8 80.3 27 6.6 43.8
17:45 1020 30.12 849 25.07 26.8 80.2 27 6.4 43.5
17:50 1020 30.12 849 25.07 26.6 79.8 27 6.3 43.4
17:55 1020 30.12 849 25.07 26.4 79.6 28 6.7 44
18:00 1020 30.12 849 25.07 26.5 79.6 28 6.7 44.1
18:05 1020 30.12 849 25.07 26.4 79.5 28 6.8 44.3
18:10 1020 30.12 849 25.07 26.3 79.3 28 6.4 43.5
18:15 1020 30.12 849 25.07 26.1 79 28 6.4 43.6
18:20 1020 30.12 849 25.07 26.1 79 28 6.3 43.4
18:25 1020 30.12 849 25.07 26 78.7 29 6.8 44.3
18:30 1020 30.12 849 25.07 25.7 78.3 30 6.9 44.4
18:35 1020 30.12 849 25.07 25.7 78.2 30 7 44.6
18:40 1020 30.12 849 25.07 25.5 77.9 31 7.2 44.9
18:45 1020 30.12 849 25.07 25.4 77.7 30 6.9 44.5
18:50 1020 30.12 849 25.07 25.3 77.6 29 6.5 43.7
18:55 1020 30.12 849 25.07 25.3 77.5 29 6.4 43.6
19:00 1020 30.12 849 25.07 25.2 77.4 30 6.8 44.3
19:05 1020 30.12 849 25.07 25.1 77.2 31 7.2 45
19:10 1020 30.12 849 25.07 25 77 32 7.3 45.1
19:15 1020 30.12 849 25.07 24.9 76.8 33 7.5 45.6
19:20 1020 30.12 849 25.07 24.8 76.6 33 7.6 45.7
19:25 1020 30.12 849 25.07 24.7 76.4 33 7.6 45.7
19:30 1020 30.12 849 25.07 24.6 76.3 34 7.8 46
19:35 1020 30.12 849 25.07 24.4 76 35 8.1 46.6
19:40 1020 30.12 849 25.07 24.2 75.5 35 8 46.5
19:45 1020 30.12 849 25.07 24.1 75.3 35 8 46.4
19:50 1020 30.12 849 25.07 23.8 74.9 36 8.2 46.7
19:55 1020 30.12 849 25.07 23.6 74.4 36 7.9 46.3
20:00 1020 30.12 849 25.07 23.3 74 37 8.2 46.7
20:05 1020 30.12 849 25.07 23.1 73.5 38 8.2 46.7
20:10 1020 30.12 849 25.07 22.9 73.2 39 8.2 46.8
20:15 1020 30.12 849 25.07 22.7 72.9 39 8.3 46.9
20:20 1020 30.12 849 25.07 22.6 72.7 40 8.3 47
20:25 1020 30.12 849 25.07 22.5 72.4 40 8.5 47.2
20:30 1020 30.12 849 25.07 22.4 72.4 40 8.5 47.3
20:35 1020 30.12 849 25.07 22.4 72.3 40 8.2 46.8
20:40 1020 30.12 849 25.07 22.5 72.5 40 8.5 47.2
20:45 1020 30.12 849 25.07 22.4 72.3 41 8.5 47.3
20:50 1020 30.12 849 25.07 22.3 72.1 41 8.7 47.6
20:55 1020 30.12 849 25.07 22.3 72.1 41 8.6 47.4
21:00 1020 30.12 849 25.07 22.4 72.4 41 8.7 47.6
21:05 1020 30.12 849 25.07 22.5 72.4 41 8.6 47.4
21:10 1020 30.12 849 25.07 22.5 72.4 41 8.6 47.4
21:15 1020 30.12 849 25.07 22.5 72.5 40 8.3 46.9
21:20 1020 30.12 849 25.07 22.6 72.7 40 8.4 47.1
21:25 1020 30.12 849 25.07 22.6 72.7 39 8.3 47
21:30 1020 30.12 849 25.07 22.5 72.5 40 8.5 47.4
21:35 1020 30.12 849 25.07 22.3 72.2 41 8.6 47.5
21:40 1020 30.12 849 25.07 22.3 72.2 40 8.4 47.1
21:45 1020 30.12 850 25.1 22.4 72.3 40 8.5 47.3
21:50 1021 30.15 850 25.1 22.4 72.3 41 8.7 47.6
21:55 1021 30.15 850 25.1 22 71.6 44 9.5 49.1
22:00 1021 30.15 850 25.1 21.9 71.5 41 8.1 46.6
22:05 1021 30.15 850 25.1 22 71.6 41 8.4 47.1
22:10 1021 30.15 850 25.1 21.7 71.1 44 9.1 48.5
22:15 1021 30.15 850 25.1 21.6 70.9 42 8.4 47.1
22:20 1021 30.15 850 25.1 22.1 71.8 40 8.2 46.8
22:25 1021 30.15 850 25.1 22.2 71.9 41 8.6 47.5
22:30 1020 30.12 850 25.1 21.8 71.3 43 8.8 47.9
22:35 1020 30.12 850 25.1 21.5 70.7 44 8.8 47.8
22:40 1020 30.12 850 25.1 21.4 70.5 45 9 48.2
22:45 1020 30.12 849 25.07 21.1 70.1 45 9.1 48.3
22:50 1020 30.12 849 25.07 20.9 69.7 46 9 48.2
22:55 1020 30.12 849 25.07 20.7 69.3 47 9.2 48.6
23:00 1020 30.12 849 25.07 20.5 68.9 48 9.2 48.5
23:05 1020 30.12 849 25.07 20.4 68.7 48 9 48.3
23:10 1020 30.12 849 25.07 20.3 68.6 48 9 48.1
23:15 1020 30.12 849 25.07 20.4 68.6 47 8.9 48
23:20 1020 30.12 849 25.07 20.4 68.7 47 8.8 47.9
23:25 1020 30.12 849 25.07 20.5 68.9 46 8.8 47.8
23:30 1020 30.12 849 25.07 20.4 68.8 47 8.9 48
23:35 1020 30.12 849 25.07 20.5 68.8 47 8.9 48.1
23:40 1020 30.12 849 25.07 20.3 68.6 48 9 48.2
23:45 1020 30.12 849 25.07 20.3 68.5 47 8.7 47.7
23:50 1020 30.12 850 25.1 20.3 68.6 47 8.9 48
23:55 1020 30.12 850 25.1 20.2 68.4 47 8.9 47.9
24:00 1021 30.15 850 25.1 20.1 68.1 49 9.1 48.4